sensor_id;sensor_type;location;lat;lon;timestamp;temperature;humidity
5930;DHT22;2990;48.746;9.236;2023-05-16T00:00:13;11.70;99.90
5930;DHT22;2990;48.746;9.236;2023-05-16T00:02:39;11.60;99.90
5930;DHT22;2990;48.746;9.236;2023-05-16T00:05:05;11.60;99.90
5930;DHT22;2990;48.746;9.236;2023-05-16T00:07:45;11.60;99.90
5930;DHT22;2990;48.746;9.236;2023-05-16T00:10:12;11.60;1.00
5930;DHT22;2990;48.746;9.236;2023-05-16T00:12:38;11.60;1.00
5930;DHT22;2990;48.746;9.236;2023-05-16T00:15:05;11.70;1.00
5930;DHT22;2990;48.746;9.236;2023-05-16T00:17:34;11.60;1.00
5930;DHT22;2990;48.746;9.236;2023-05-16T00:20:00;11.60;1.00
5930;DHT22;2990;48.746;9.236;2023-05-16T00:22:26;11.60;1.00
5930;DHT22;2990;48.746;9.236;2023-05-16T00:24:52;11.60;1.00
5930;DHT22;2990;48.746;9.236;2023-05-16T00:27:18;11.60;1.00
5930;DHT22;2990;48.746;9.236;2023-05-16T00:29:44;11.50;1.00
5930;DHT22;2990;48.746;9.236;2023-05-16T00:32:10;11.50;1.00
5930;DHT22;2990;48.746;9.236;2023-05-16T00:34:35;11.50;1.00
5930;DHT22;2990;48.746;9.236;2023-05-16T00:37:01;11.50;1.00
5930;DHT22;2990;48.746;9.236;2023-05-16T00:39:26;11.50;1.00
5930;DHT22;2990;48.746;9.236;2023-05-16T00:41:52;12.00;1.00
5930;DHT22;2990;48.746;9.236;2023-05-16T00:44:18;11.40;1.00
5930;DHT22;2990;48.746;9.236;2023-05-16T00:46:43;11.30;1.00
5930;DHT22;2990;48.746;9.236;2023-05-16T00:49:09;11.30;1.00
5930;DHT22;2990;48.746;9.236;2023-05-16T00:51:38;11.30;1.00
5930;DHT22;2990;48.746;9.236;2023-05-16T00:54:04;11.30;1.00
5930;DHT22;2990;48.746;9.236;2023-05-16T00:56:30;11.30;1.00
5930;DHT22;2990;48.746;9.236;2023-05-16T00:58:56;11.30;1.00
5930;DHT22;2990;48.746;9.236;2023-05-16T01:01:24;11.30;1.00
5930;DHT22;2990;48.746;9.236;2023-05-16T01:03:50;11.30;1.00
5930;DHT22;2990;48.746;9.236;2023-05-16T01:06:16;11.20;1.00
5930;DHT22;2990;48.746;9.236;2023-05-16T01:08:42;11.30;1.00
5930;DHT22;2990;48.746;9.236;2023-05-16T01:14:15;11.30;1.00
5930;DHT22;2990;48.746;9.236;2023-05-16T01:22:10;11.30;1.00
5930;DHT22;2990;48.746;9.236;2023-05-16T01:24:43;11.30;1.00
5930;DHT22;2990;48.746;9.236;2023-05-16T01:27:15;11.20;1.00
5930;DHT22;2990;48.746;9.236;2023-05-16T01:29:41;11.40;1.00
5930;DHT22;2990;48.746;9.236;2023-05-16T01:32:07;11.20;1.00
5930;DHT22;2990;48.746;9.236;2023-05-16T01:34:32;11.20;1.00
5930;DHT22;2990;48.746;9.236;2023-05-16T01:37:11;11.20;1.00
5930;DHT22;2990;48.746;9.236;2023-05-16T01:39:46;11.20;1.00
5930;DHT22;2990;48.746;9.236;2023-05-16T01:42:18;11.20;1.00
5930;DHT22;2990;48.746;9.236;2023-05-16T01:47:54;11.30;1.00
5930;DHT22;2990;48.746;9.236;2023-05-16T01:50:24;11.20;1.00
5930;DHT22;2990;48.746;9.236;2023-05-16T01:52:59;11.10;1.00
5930;DHT22;2990;48.746;9.236;2023-05-16T01:56:08;11.10;1.00
5930;DHT22;2990;48.746;9.236;2023-05-16T01:58:34;11.10;1.00
5930;DHT22;2990;48.746;9.236;2023-05-16T02:01:03;11.10;1.00
5930;DHT22;2990;48.746;9.236;2023-05-16T02:03:30;11.00;1.00
5930;DHT22;2990;48.746;9.236;2023-05-16T02:05:58;11.10;1.00
5930;DHT22;2990;48.746;9.236;2023-05-16T02:08:24;11.10;1.00
5930;DHT22;2990;48.746;9.236;2023-05-16T02:10:51;11.00;1.00
5930;DHT22;2990;48.746;9.236;2023-05-16T02:13:17;10.80;1.00
5930;DHT22;2990;48.746;9.236;2023-05-16T02:15:42;11.00;1.00
5930;DHT22;2990;48.746;9.236;2023-05-16T02:18:08;10.90;1.00
5930;DHT22;2990;48.746;9.236;2023-05-16T02:20:34;11.00;1.00
5930;DHT22;2990;48.746;9.236;2023-05-16T02:23:00;10.90;1.00
5930;DHT22;2990;48.746;9.236;2023-05-16T02:25:27;10.90;1.00
5930;DHT22;2990;48.746;9.236;2023-05-16T02:30:19;10.90;1.00
5930;DHT22;2990;48.746;9.236;2023-05-16T02:32:45;11.00;5.00
5930;DHT22;2990;48.746;9.236;2023-05-16T03:53:12;10.90;16.70
5930;DHT22;2990;48.746;9.236;2023-05-16T04:07:48;10.30;99.90
5930;DHT22;2990;48.746;9.236;2023-05-16T04:10:14;10.30;99.90
5930;DHT22;2990;48.746;9.236;2023-05-16T04:12:39;10.20;99.90
5930;DHT22;2990;48.746;9.236;2023-05-16T04:15:05;10.30;99.90
5930;DHT22;2990;48.746;9.236;2023-05-16T04:17:32;10.30;99.90
5930;DHT22;2990;48.746;9.236;2023-05-16T04:19:58;10.30;99.90
5930;DHT22;2990;48.746;9.236;2023-05-16T04:22:24;10.30;99.90
5930;DHT22;2990;48.746;9.236;2023-05-16T04:24:50;10.40;99.90
5930;DHT22;2990;48.746;9.236;2023-05-16T04:27:16;10.40;99.90
5930;DHT22;2990;48.746;9.236;2023-05-16T04:29:42;10.40;99.90
5930;DHT22;2990;48.746;9.236;2023-05-16T04:32:08;10.40;99.90
5930;DHT22;2990;48.746;9.236;2023-05-16T04:34:35;10.40;99.90
5930;DHT22;2990;48.746;9.236;2023-05-16T04:37:05;10.40;99.90
5930;DHT22;2990;48.746;9.236;2023-05-16T04:39:32;10.70;99.90
5930;DHT22;2990;48.746;9.236;2023-05-16T04:41:58;10.50;99.90
5930;DHT22;2990;48.746;9.236;2023-05-16T04:44:24;10.70;99.90
5930;DHT22;2990;48.746;9.236;2023-05-16T04:46:51;10.60;99.90
5930;DHT22;2990;48.746;9.236;2023-05-16T04:49:18;10.80;99.90
5930;DHT22;2990;48.746;9.236;2023-05-16T04:51:43;10.70;99.90
5930;DHT22;2990;48.746;9.236;2023-05-16T04:54:09;10.70;99.90
5930;DHT22;2990;48.746;9.236;2023-05-16T04:56:35;10.70;99.90
5930;DHT22;2990;48.746;9.236;2023-05-16T04:59:01;10.70;99.90
5930;DHT22;2990;48.746;9.236;2023-05-16T05:01:53;10.70;99.90
5930;DHT22;2990;48.746;9.236;2023-05-16T05:04:19;10.80;99.90
5930;DHT22;2990;48.746;9.236;2023-05-16T05:06:44;10.90;99.90
5930;DHT22;2990;48.746;9.236;2023-05-16T05:09:10;10.80;99.90
5930;DHT22;2990;48.746;9.236;2023-05-16T05:11:41;10.80;99.90
5930;DHT22;2990;48.746;9.236;2023-05-16T05:14:23;10.90;99.90
5930;DHT22;2990;48.746;9.236;2023-05-16T05:16:58;10.90;98.90
5930;DHT22;2990;48.746;9.236;2023-05-16T05:19:33;10.90;99.90
5930;DHT22;2990;48.746;9.236;2023-05-16T05:21:59;10.90;96.90
5930;DHT22;2990;48.746;9.236;2023-05-16T05:24:25;10.90;89.00
5930;DHT22;2990;48.746;9.236;2023-05-16T05:26:50;10.90;94.00
5930;DHT22;2990;48.746;9.236;2023-05-16T05:29:16;10.90;85.90
5930;DHT22;2990;48.746;9.236;2023-05-16T05:31:41;11.00;90.20
5930;DHT22;2990;48.746;9.236;2023-05-16T05:34:07;11.00;81.90
5930;DHT22;2990;48.746;9.236;2023-05-16T05:36:32;11.00;67.10
5930;DHT22;2990;48.746;9.236;2023-05-16T05:38:58;11.00;54.50
5930;DHT22;2990;48.746;9.236;2023-05-16T05:41:23;10.90;45.50
5930;DHT22;2990;48.746;9.236;2023-05-16T05:43:49;11.00;54.00
5930;DHT22;2990;48.746;9.236;2023-05-16T05:46:15;11.00;59.80
5930;DHT22;2990;48.746;9.236;2023-05-16T05:48:41;11.00;73.30
5930;DHT22;2990;48.746;9.236;2023-05-16T05:51:07;11.00;74.50
5930;DHT22;2990;48.746;9.236;2023-05-16T05:53:33;11.00;26.90
5930;DHT22;2990;48.746;9.236;2023-05-16T05:56:04;11.00;15.80
5930;DHT22;2990;48.746;9.236;2023-05-16T05:58:30;11.10;9.00
5930;DHT22;2990;48.746;9.236;2023-05-16T06:00:56;11.00;18.90
5930;DHT22;2990;48.746;9.236;2023-05-16T06:03:32;11.00;18.20
5930;DHT22;2990;48.746;9.236;2023-05-16T06:06:00;10.90;34.00
5930;DHT22;2990;48.746;9.236;2023-05-16T06:08:26;11.00;40.70
5930;DHT22;2990;48.746;9.236;2023-05-16T06:10:52;11.00;45.10
5930;DHT22;2990;48.746;9.236;2023-05-16T06:13:18;11.00;44.10
5930;DHT22;2990;48.746;9.236;2023-05-16T06:15:48;11.00;40.70
5930;DHT22;2990;48.746;9.236;2023-05-16T06:18:13;11.10;24.70
5930;DHT22;2990;48.746;9.236;2023-05-16T06:20:39;11.10;16.00
5930;DHT22;2990;48.746;9.236;2023-05-16T06:23:05;11.20;23.90
5930;DHT22;2990;48.746;9.236;2023-05-16T06:25:30;11.10;13.80
5930;DHT22;2990;48.746;9.236;2023-05-16T06:27:56;11.40;1.00
5930;DHT22;2990;48.746;9.236;2023-05-16T06:30:22;11.40;1.00
5930;DHT22;2990;48.746;9.236;2023-05-16T06:32:47;11.70;1.00
5930;DHT22;2990;48.746;9.236;2023-05-16T06:35:13;11.50;1.00
5930;DHT22;2990;48.746;9.236;2023-05-16T06:37:39;11.50;1.00
5930;DHT22;2990;48.746;9.236;2023-05-16T06:40:05;11.50;1.00
5930;DHT22;2990;48.746;9.236;2023-05-16T06:42:33;11.40;1.00
5930;DHT22;2990;48.746;9.236;2023-05-16T06:44:58;11.50;1.00
5930;DHT22;2990;48.746;9.236;2023-05-16T06:47:24;11.50;1.00
5930;DHT22;2990;48.746;9.236;2023-05-16T06:49:50;11.80;1.00
5930;DHT22;2990;48.746;9.236;2023-05-16T06:52:17;11.60;1.00
5930;DHT22;2990;48.746;9.236;2023-05-16T06:54:42;11.60;1.00
5930;DHT22;2990;48.746;9.236;2023-05-16T06:57:08;11.60;1.00
5930;DHT22;2990;48.746;9.236;2023-05-16T06:59:34;11.60;1.00
5930;DHT22;2990;48.746;9.236;2023-05-16T07:02:00;11.80;1.00
5930;DHT22;2990;48.746;9.236;2023-05-16T07:04:26;11.60;1.00
5930;DHT22;2990;48.746;9.236;2023-05-16T07:06:52;11.70;1.00
5930;DHT22;2990;48.746;9.236;2023-05-16T07:09:18;11.70;1.00
5930;DHT22;2990;48.746;9.236;2023-05-16T07:11:44;11.70;1.00
5930;DHT22;2990;48.746;9.236;2023-05-16T07:14:09;11.70;1.00
5930;DHT22;2990;48.746;9.236;2023-05-16T07:16:35;11.70;1.00
5930;DHT22;2990;48.746;9.236;2023-05-16T07:19:01;11.70;1.00
5930;DHT22;2990;48.746;9.236;2023-05-16T07:21:26;11.70;1.00
5930;DHT22;2990;48.746;9.236;2023-05-16T07:23:52;12.00;1.00
5930;DHT22;2990;48.746;9.236;2023-05-16T07:26:17;11.90;1.00
5930;DHT22;2990;48.746;9.236;2023-05-16T07:28:43;12.00;99.90
5930;DHT22;2990;48.746;9.236;2023-05-16T07:31:08;12.10;99.90
5930;DHT22;2990;48.746;9.236;2023-05-16T07:33:34;12.40;99.90
5930;DHT22;2990;48.746;9.236;2023-05-16T07:36:00;12.20;99.90
5930;DHT22;2990;48.746;9.236;2023-05-16T07:38:25;12.30;99.90
5930;DHT22;2990;48.746;9.236;2023-05-16T07:40:51;12.30;48.40
5930;DHT22;2990;48.746;9.236;2023-05-16T07:43:17;12.20;1.60
5930;DHT22;2990;48.746;9.236;2023-05-16T07:45:42;12.00;99.90
5930;DHT22;2990;48.746;9.236;2023-05-16T07:48:08;11.90;99.90
5930;DHT22;2990;48.746;9.236;2023-05-16T07:50:34;12.10;99.90
5930;DHT22;2990;48.746;9.236;2023-05-16T07:52:59;12.00;99.90
5930;DHT22;2990;48.746;9.236;2023-05-16T07:55:25;11.70;99.90
5930;DHT22;2990;48.746;9.236;2023-05-16T07:57:51;11.80;99.90
5930;DHT22;2990;48.746;9.236;2023-05-16T08:00:17;11.80;99.90
5930;DHT22;2990;48.746;9.236;2023-05-16T08:02:43;11.80;99.90
5930;DHT22;2990;48.746;9.236;2023-05-16T08:05:09;11.90;1.00
5930;DHT22;2990;48.746;9.236;2023-05-16T08:07:34;11.90;1.00
5930;DHT22;2990;48.746;9.236;2023-05-16T08:10:00;11.90;1.00
5930;DHT22;2990;48.746;9.236;2023-05-16T08:12:26;11.90;1.00
5930;DHT22;2990;48.746;9.236;2023-05-16T08:14:51;11.90;99.90
5930;DHT22;2990;48.746;9.236;2023-05-16T08:17:17;11.90;1.00
5930;DHT22;2990;48.746;9.236;2023-05-16T08:19:43;12.00;99.90
5930;DHT22;2990;48.746;9.236;2023-05-16T08:22:09;11.70;99.90
5930;DHT22;2990;48.746;9.236;2023-05-16T08:24:35;11.90;1.00
5930;DHT22;2990;48.746;9.236;2023-05-16T08:27:00;11.80;1.00
5930;DHT22;2990;48.746;9.236;2023-05-16T08:29:26;11.90;99.90
5930;DHT22;2990;48.746;9.236;2023-05-16T08:31:51;11.80;99.90
5930;DHT22;2990;48.746;9.236;2023-05-16T08:34:17;11.80;1.00
5930;DHT22;2990;48.746;9.236;2023-05-16T08:36:43;11.80;1.00
5930;DHT22;2990;48.746;9.236;2023-05-16T08:39:09;11.90;1.00
5930;DHT22;2990;48.746;9.236;2023-05-16T08:42:06;11.90;99.90
5930;DHT22;2990;48.746;9.236;2023-05-16T08:44:33;11.90;1.00
5930;DHT22;2990;48.746;9.236;2023-05-16T08:47:10;11.50;1.00
5930;DHT22;2990;48.746;9.236;2023-05-16T08:49:40;11.70;33.50
5930;DHT22;2990;48.746;9.236;2023-05-16T08:52:08;11.60;99.90
5930;DHT22;2990;48.746;9.236;2023-05-16T08:54:34;11.60;1.00
5930;DHT22;2990;48.746;9.236;2023-05-16T08:57:01;11.60;1.00
5930;DHT22;2990;48.746;9.236;2023-05-16T08:59:27;11.50;99.90
5930;DHT22;2990;48.746;9.236;2023-05-16T09:01:54;11.50;1.00
5930;DHT22;2990;48.746;9.236;2023-05-16T09:04:20;11.40;1.00
5930;DHT22;2990;48.746;9.236;2023-05-16T09:06:47;11.40;95.40
5930;DHT22;2990;48.746;9.236;2023-05-16T09:09:12;11.30;55.70
5930;DHT22;2990;48.746;9.236;2023-05-16T09:11:38;11.30;99.90
5930;DHT22;2990;48.746;9.236;2023-05-16T09:14:04;11.40;99.90
5930;DHT22;2990;48.746;9.236;2023-05-16T09:16:30;11.70;1.00
5930;DHT22;2990;48.746;9.236;2023-05-16T09:18:58;11.20;1.00
5930;DHT22;2990;48.746;9.236;2023-05-16T09:21:32;11.10;1.00
5930;DHT22;2990;48.746;9.236;2023-05-16T09:24:08;11.10;1.00
5930;DHT22;2990;48.746;9.236;2023-05-16T09:26:35;11.10;1.00
5930;DHT22;2990;48.746;9.236;2023-05-16T09:29:09;11.00;1.00
5930;DHT22;2990;48.746;9.236;2023-05-16T09:31:35;11.30;1.00
5930;DHT22;2990;48.746;9.236;2023-05-16T09:34:06;11.40;1.00
5930;DHT22;2990;48.746;9.236;2023-05-16T09:36:32;11.10;1.00
5930;DHT22;2990;48.746;9.236;2023-05-16T09:38:58;11.00;1.00
5930;DHT22;2990;48.746;9.236;2023-05-16T09:41:23;11.10;1.00
5930;DHT22;2990;48.746;9.236;2023-05-16T09:43:49;11.10;1.00
5930;DHT22;2990;48.746;9.236;2023-05-16T09:46:15;11.10;1.00
5930;DHT22;2990;48.746;9.236;2023-05-16T09:48:44;11.10;1.00
5930;DHT22;2990;48.746;9.236;2023-05-16T09:51:11;11.10;1.00
5930;DHT22;2990;48.746;9.236;2023-05-16T09:53:37;11.10;1.00
5930;DHT22;2990;48.746;9.236;2023-05-16T09:56:06;11.20;1.00
5930;DHT22;2990;48.746;9.236;2023-05-16T09:58:39;11.30;1.00
5930;DHT22;2990;48.746;9.236;2023-05-16T10:01:06;11.30;1.00
5930;DHT22;2990;48.746;9.236;2023-05-16T10:03:37;11.50;1.00
5930;DHT22;2990;48.746;9.236;2023-05-16T10:06:03;11.60;1.00
5930;DHT22;2990;48.746;9.236;2023-05-16T10:08:31;11.50;1.00
5930;DHT22;2990;48.746;9.236;2023-05-16T10:11:01;11.60;1.00
5930;DHT22;2990;48.746;9.236;2023-05-16T10:13:34;11.60;1.00
5930;DHT22;2990;48.746;9.236;2023-05-16T10:16:13;11.70;1.00
5930;DHT22;2990;48.746;9.236;2023-05-16T10:18:39;11.70;1.00
5930;DHT22;2990;48.746;9.236;2023-05-16T10:21:09;11.80;1.00
5930;DHT22;2990;48.746;9.236;2023-05-16T10:23:41;11.60;1.00
5930;DHT22;2990;48.746;9.236;2023-05-16T10:26:07;11.50;1.00
5930;DHT22;2990;48.746;9.236;2023-05-16T10:28:34;11.50;1.00
5930;DHT22;2990;48.746;9.236;2023-05-16T10:31:00;11.50;1.00
5930;DHT22;2990;48.746;9.236;2023-05-16T10:33:27;11.60;1.00
5930;DHT22;2990;48.746;9.236;2023-05-16T10:35:54;11.60;1.00
5930;DHT22;2990;48.746;9.236;2023-05-16T10:38:20;11.60;1.00
5930;DHT22;2990;48.746;9.236;2023-05-16T10:40:47;11.70;1.00
5930;DHT22;2990;48.746;9.236;2023-05-16T10:43:22;11.70;1.00
5930;DHT22;2990;48.746;9.236;2023-05-16T10:45:57;11.90;1.00
5930;DHT22;2990;48.746;9.236;2023-05-16T10:48:34;12.10;1.00
5930;DHT22;2990;48.746;9.236;2023-05-16T10:51:01;12.30;99.90
5930;DHT22;2990;48.746;9.236;2023-05-16T11:17:21;12.20;99.90
5930;DHT22;2990;48.746;9.236;2023-05-16T11:19:49;12.10;99.90
5930;DHT22;2990;48.746;9.236;2023-05-16T11:25:01;11.90;99.90
5930;DHT22;2990;48.746;9.236;2023-05-16T11:27:32;11.80;1.00
5930;DHT22;2990;48.746;9.236;2023-05-16T11:30:18;11.80;1.00
5930;DHT22;2990;48.746;9.236;2023-05-16T11:32:46;11.50;1.00
5930;DHT22;2990;48.746;9.236;2023-05-16T11:35:15;11.70;1.00
5930;DHT22;2990;48.746;9.236;2023-05-16T11:37:41;11.40;1.00
5930;DHT22;2990;48.746;9.236;2023-05-16T11:40:09;11.40;1.00
5930;DHT22;2990;48.746;9.236;2023-05-16T11:42:45;11.40;1.00
5930;DHT22;2990;48.746;9.236;2023-05-16T11:47:42;11.10;1.00
5930;DHT22;2990;48.746;9.236;2023-05-16T11:52:38;11.00;43.50
5930;DHT22;2990;48.746;9.236;2023-05-16T11:55:05;10.90;99.90
5930;DHT22;2990;48.746;9.236;2023-05-16T11:57:32;10.80;99.90
5930;DHT22;2990;48.746;9.236;2023-05-16T12:00:07;10.90;99.90
5930;DHT22;2990;48.746;9.236;2023-05-16T12:02:38;10.50;99.90
5930;DHT22;2990;48.746;9.236;2023-05-16T12:05:10;10.40;99.90
5930;DHT22;2990;48.746;9.236;2023-05-16T12:07:38;10.40;99.90
5930;DHT22;2990;48.746;9.236;2023-05-16T12:10:05;10.40;99.90
5930;DHT22;2990;48.746;9.236;2023-05-16T12:12:32;10.40;99.90
5930;DHT22;2990;48.746;9.236;2023-05-16T12:14:58;10.30;99.90
5930;DHT22;2990;48.746;9.236;2023-05-16T12:17:24;10.50;99.90
5930;DHT22;2990;48.746;9.236;2023-05-16T12:19:50;10.50;99.90
5930;DHT22;2990;48.746;9.236;2023-05-16T12:22:16;10.40;99.90
5930;DHT22;2990;48.746;9.236;2023-05-16T12:24:42;10.50;99.90
5930;DHT22;2990;48.746;9.236;2023-05-16T12:27:08;10.50;99.90
5930;DHT22;2990;48.746;9.236;2023-05-16T12:29:34;10.50;99.90
5930;DHT22;2990;48.746;9.236;2023-05-16T12:32:00;10.60;99.90
5930;DHT22;2990;48.746;9.236;2023-05-16T12:34:28;10.70;68.00
5930;DHT22;2990;48.746;9.236;2023-05-16T12:36:54;10.80;35.20
5930;DHT22;2990;48.746;9.236;2023-05-16T12:39:20;10.60;24.50
5930;DHT22;2990;48.746;9.236;2023-05-16T12:41:47;10.70;11.00
5930;DHT22;2990;48.746;9.236;2023-05-16T12:44:17;10.60;1.00
5930;DHT22;2990;48.746;9.236;2023-05-16T12:46:49;10.60;1.00
5930;DHT22;2990;48.746;9.236;2023-05-16T12:49:21;10.70;1.00
5930;DHT22;2990;48.746;9.236;2023-05-16T12:51:48;10.70;1.00
5930;DHT22;2990;48.746;9.236;2023-05-16T12:54:14;10.80;1.00
5930;DHT22;2990;48.746;9.236;2023-05-16T12:56:40;10.70;1.00
5930;DHT22;2990;48.746;9.236;2023-05-16T12:59:07;10.80;1.00
5930;DHT22;2990;48.746;9.236;2023-05-16T13:01:34;10.80;1.00
5930;DHT22;2990;48.746;9.236;2023-05-16T13:04:00;10.80;1.00
5930;DHT22;2990;48.746;9.236;2023-05-16T13:06:25;10.80;1.00
5930;DHT22;2990;48.746;9.236;2023-05-16T13:08:51;10.80;1.00
5930;DHT22;2990;48.746;9.236;2023-05-16T13:11:17;10.80;1.00
5930;DHT22;2990;48.746;9.236;2023-05-16T13:13:43;11.30;1.00
5930;DHT22;2990;48.746;9.236;2023-05-16T13:16:09;10.90;1.00
5930;DHT22;2990;48.746;9.236;2023-05-16T13:18:34;10.90;1.00
5930;DHT22;2990;48.746;9.236;2023-05-16T13:21:01;10.90;1.00
5930;DHT22;2990;48.746;9.236;2023-05-16T13:23:29;10.80;1.00
5930;DHT22;2990;48.746;9.236;2023-05-16T13:25:54;10.80;1.00
5930;DHT22;2990;48.746;9.236;2023-05-16T13:28:20;10.80;1.00
5930;DHT22;2990;48.746;9.236;2023-05-16T13:30:46;10.80;1.00
5930;DHT22;2990;48.746;9.236;2023-05-16T13:33:12;10.80;1.00
5930;DHT22;2990;48.746;9.236;2023-05-16T13:35:37;10.70;1.00
5930;DHT22;2990;48.746;9.236;2023-05-16T13:38:03;10.80;1.00
5930;DHT22;2990;48.746;9.236;2023-05-16T13:40:29;10.80;1.00
5930;DHT22;2990;48.746;9.236;2023-05-16T13:42:55;10.80;1.00
5930;DHT22;2990;48.746;9.236;2023-05-16T13:45:21;10.90;1.00
5930;DHT22;2990;48.746;9.236;2023-05-16T13:47:47;11.00;1.00
5930;DHT22;2990;48.746;9.236;2023-05-16T13:50:12;11.00;99.90
5930;DHT22;2990;48.746;9.236;2023-05-16T13:52:38;11.00;99.90
5930;DHT22;2990;48.746;9.236;2023-05-16T13:55:05;11.00;99.90
5930;DHT22;2990;48.746;9.236;2023-05-16T13:57:30;11.00;51.90
5930;DHT22;2990;48.746;9.236;2023-05-16T13:59:57;10.90;1.00
5930;DHT22;2990;48.746;9.236;2023-05-16T14:02:23;10.90;53.10
5930;DHT22;2990;48.746;9.236;2023-05-16T14:04:51;10.80;1.00
5930;DHT22;2990;48.746;9.236;2023-05-16T14:07:17;10.80;98.70
5930;DHT22;2990;48.746;9.236;2023-05-16T14:09:42;10.90;85.80
5930;DHT22;2990;48.746;9.236;2023-05-16T14:12:09;10.80;99.90
5930;DHT22;2990;48.746;9.236;2023-05-16T14:14:35;10.90;99.90
5930;DHT22;2990;48.746;9.236;2023-05-16T14:17:00;10.90;1.00
5930;DHT22;2990;48.746;9.236;2023-05-16T14:19:26;10.80;1.00
5930;DHT22;2990;48.746;9.236;2023-05-16T14:21:55;10.80;45.00
5930;DHT22;2990;48.746;9.236;2023-05-16T14:24:21;10.80;1.00
5930;DHT22;2990;48.746;9.236;2023-05-16T14:26:47;10.80;99.90
5930;DHT22;2990;48.746;9.236;2023-05-16T14:29:13;11.00;99.90
5930;DHT22;2990;48.746;9.236;2023-05-16T14:31:39;10.90;43.40
5930;DHT22;2990;48.746;9.236;2023-05-16T14:34:05;10.70;1.00
5930;DHT22;2990;48.746;9.236;2023-05-16T14:36:31;10.90;1.00
5930;DHT22;2990;48.746;9.236;2023-05-16T14:38:57;10.70;1.00
5930;DHT22;2990;48.746;9.236;2023-05-16T14:41:23;10.90;1.00
5930;DHT22;2990;48.746;9.236;2023-05-16T14:43:49;10.90;1.00
5930;DHT22;2990;48.746;9.236;2023-05-16T14:46:15;10.90;99.90
5930;DHT22;2990;48.746;9.236;2023-05-16T14:48:41;11.00;99.90
5930;DHT22;2990;48.746;9.236;2023-05-16T14:51:07;11.00;99.90
5930;DHT22;2990;48.746;9.236;2023-05-16T14:53:32;11.10;99.90
5930;DHT22;2990;48.746;9.236;2023-05-16T14:55:58;11.00;1.00
5930;DHT22;2990;48.746;9.236;2023-05-16T14:58:24;11.10;1.00
5930;DHT22;2990;48.746;9.236;2023-05-16T15:00:53;11.00;99.90
5930;DHT22;2990;48.746;9.236;2023-05-16T15:03:19;11.10;1.00
5930;DHT22;2990;48.746;9.236;2023-05-16T15:05:45;11.20;1.00
5930;DHT22;2990;48.746;9.236;2023-05-16T15:08:10;11.20;1.00
5930;DHT22;2990;48.746;9.236;2023-05-16T15:10:36;11.30;99.90
5930;DHT22;2990;48.746;9.236;2023-05-16T15:13:01;11.30;86.40
5930;DHT22;2990;48.746;9.236;2023-05-16T15:15:28;11.30;1.00
5930;DHT22;2990;48.746;9.236;2023-05-16T15:17:57;11.30;1.00
5930;DHT22;2990;48.746;9.236;2023-05-16T15:20:23;11.30;99.90
5930;DHT22;2990;48.746;9.236;2023-05-16T15:22:56;11.30;1.00
5930;DHT22;2990;48.746;9.236;2023-05-16T15:25:22;11.30;99.90
5930;DHT22;2990;48.746;9.236;2023-05-16T15:27:47;11.30;1.00
5930;DHT22;2990;48.746;9.236;2023-05-16T15:30:13;11.20;1.00
5930;DHT22;2990;48.746;9.236;2023-05-16T15:32:39;11.30;99.90
5930;DHT22;2990;48.746;9.236;2023-05-16T15:35:05;11.30;99.90
5930;DHT22;2990;48.746;9.236;2023-05-16T15:37:31;11.30;99.90
5930;DHT22;2990;48.746;9.236;2023-05-16T15:39:57;11.30;99.90
5930;DHT22;2990;48.746;9.236;2023-05-16T15:42:22;11.30;99.90
5930;DHT22;2990;48.746;9.236;2023-05-16T15:44:48;11.30;99.90
5930;DHT22;2990;48.746;9.236;2023-05-16T15:47:14;11.40;99.90
5930;DHT22;2990;48.746;9.236;2023-05-16T15:49:40;11.50;99.90
5930;DHT22;2990;48.746;9.236;2023-05-16T15:52:06;11.50;1.00
5930;DHT22;2990;48.746;9.236;2023-05-16T15:54:31;11.50;1.00
5930;DHT22;2990;48.746;9.236;2023-05-16T15:56:57;11.60;1.00
5930;DHT22;2990;48.746;9.236;2023-05-16T15:59:23;11.60;1.00
5930;DHT22;2990;48.746;9.236;2023-05-16T16:01:48;11.70;1.00
5930;DHT22;2990;48.746;9.236;2023-05-16T16:04:16;11.80;99.90
5930;DHT22;2990;48.746;9.236;2023-05-16T16:06:42;11.70;15.40
5930;DHT22;2990;48.746;9.236;2023-05-16T16:09:07;11.60;1.00
5930;DHT22;2990;48.746;9.236;2023-05-16T16:11:35;11.60;1.00
5930;DHT22;2990;48.746;9.236;2023-05-16T16:14:01;11.50;34.50
5930;DHT22;2990;48.746;9.236;2023-05-16T16:16:30;11.50;99.90
5930;DHT22;2990;48.746;9.236;2023-05-16T16:18:55;11.50;1.00
5930;DHT22;2990;48.746;9.236;2023-05-16T16:21:22;11.40;1.00
5930;DHT22;2990;48.746;9.236;2023-05-16T16:23:48;11.60;1.00
5930;DHT22;2990;48.746;9.236;2023-05-16T16:26:13;11.40;1.00
5930;DHT22;2990;48.746;9.236;2023-05-16T16:28:39;11.50;1.00
5930;DHT22;2990;48.746;9.236;2023-05-16T16:31:05;11.40;1.00
5930;DHT22;2990;48.746;9.236;2023-05-16T16:33:30;11.40;1.00
5930;DHT22;2990;48.746;9.236;2023-05-16T16:35:58;11.40;99.90
5930;DHT22;2990;48.746;9.236;2023-05-16T16:38:27;11.40;99.90
5930;DHT22;2990;48.746;9.236;2023-05-16T16:40:52;11.30;99.90
5930;DHT22;2990;48.746;9.236;2023-05-16T16:43:18;11.30;99.90
5930;DHT22;2990;48.746;9.236;2023-05-16T16:45:44;11.30;99.90
5930;DHT22;2990;48.746;9.236;2023-05-16T16:48:09;11.30;99.90
5930;DHT22;2990;48.746;9.236;2023-05-16T16:50:35;11.30;99.90
5930;DHT22;2990;48.746;9.236;2023-05-16T16:53:01;11.40;99.90
5930;DHT22;2990;48.746;9.236;2023-05-16T16:55:29;11.40;99.90
5930;DHT22;2990;48.746;9.236;2023-05-16T16:57:54;11.40;99.90
5930;DHT22;2990;48.746;9.236;2023-05-16T17:00:20;11.40;99.90
5930;DHT22;2990;48.746;9.236;2023-05-16T17:02:46;11.40;53.50
5930;DHT22;2990;48.746;9.236;2023-05-16T17:05:11;11.40;41.90
5930;DHT22;2990;48.746;9.236;2023-05-16T17:07:37;11.40;13.10
5930;DHT22;2990;48.746;9.236;2023-05-16T17:10:04;11.40;46.20
5930;DHT22;2990;48.746;9.236;2023-05-16T17:12:29;11.40;13.70
5930;DHT22;2990;48.746;9.236;2023-05-16T17:14:57;11.50;1.00
5930;DHT22;2990;48.746;9.236;2023-05-16T17:17:23;11.50;1.00
5930;DHT22;2990;48.746;9.236;2023-05-16T17:19:49;11.60;1.00
5930;DHT22;2990;48.746;9.236;2023-05-16T17:22:16;11.50;1.00
5930;DHT22;2990;48.746;9.236;2023-05-16T17:24:42;11.40;1.00
5930;DHT22;2990;48.746;9.236;2023-05-16T17:27:07;11.40;1.00
5930;DHT22;2990;48.746;9.236;2023-05-16T17:29:33;11.40;1.00
5930;DHT22;2990;48.746;9.236;2023-05-16T17:31:59;11.30;1.00
5930;DHT22;2990;48.746;9.236;2023-05-16T17:34:24;11.40;1.00
5930;DHT22;2990;48.746;9.236;2023-05-16T17:36:51;11.40;1.00
5930;DHT22;2990;48.746;9.236;2023-05-16T17:39:16;11.30;1.00
5930;DHT22;2990;48.746;9.236;2023-05-16T17:41:44;11.30;1.00
5930;DHT22;2990;48.746;9.236;2023-05-16T17:52:01;11.40;1.00
5930;DHT22;2990;48.746;9.236;2023-05-16T17:54:30;11.50;1.00
5930;DHT22;2990;48.746;9.236;2023-05-16T17:56:56;11.40;1.00
5930;DHT22;2990;48.746;9.236;2023-05-16T17:59:22;11.50;1.00
5930;DHT22;2990;48.746;9.236;2023-05-16T18:01:48;11.40;1.00
5930;DHT22;2990;48.746;9.236;2023-05-16T18:04:14;11.50;1.00
5930;DHT22;2990;48.746;9.236;2023-05-16T18:06:40;11.40;1.00
5930;DHT22;2990;48.746;9.236;2023-05-16T18:09:06;11.40;1.00
5930;DHT22;2990;48.746;9.236;2023-05-16T18:11:40;11.40;1.00
5930;DHT22;2990;48.746;9.236;2023-05-16T18:14:06;11.40;1.00
5930;DHT22;2990;48.746;9.236;2023-05-16T18:16:39;11.40;1.00
5930;DHT22;2990;48.746;9.236;2023-05-16T18:19:21;11.40;1.00
5930;DHT22;2990;48.746;9.236;2023-05-16T18:21:47;11.40;1.00
5930;DHT22;2990;48.746;9.236;2023-05-16T18:24:32;11.40;1.00
5930;DHT22;2990;48.746;9.236;2023-05-16T18:26:59;11.40;1.00
5930;DHT22;2990;48.746;9.236;2023-05-16T18:29:28;11.30;1.00
5930;DHT22;2990;48.746;9.236;2023-05-16T18:32:03;11.30;1.00
5930;DHT22;2990;48.746;9.236;2023-05-16T18:37:04;11.30;1.00